createdAt,value
2022-11-01T00:00:12.336Z,13.37
2022-11-01T00:06:11.263Z,14.17
2022-11-01T00:12:04.542Z,14.37
2022-11-01T00:17:57.612Z,14.60
2022-11-01T00:23:52.225Z,15.00
2022-11-01T00:29:45.531Z,14.50
2022-11-01T00:35:38.785Z,14.20
2022-11-01T00:41:33.513Z,13.53
2022-11-01T00:47:26.773Z,14.90
2022-11-01T00:53:20.043Z,15.83
2022-11-01T00:59:14.858Z,16.23
2022-11-01T01:05:09.348Z,17.57
2022-11-01T01:11:02.593Z,17.00
2022-11-01T01:16:57.183Z,16.30
2022-11-01T01:22:50.673Z,17.47
2022-11-01T01:28:45.023Z,17.07
2022-11-01T01:34:39.293Z,18.30
2022-11-01T01:40:33.245Z,17.57
2022-11-01T01:46:26.080Z,18.03
2022-11-01T01:52:21.107Z,16.97
2022-11-01T01:58:16.216Z,18.60
2022-11-01T02:04:16.831Z,18.47
2022-11-01T02:10:14.814Z,18.10
2022-11-01T02:16:26.326Z,18.47
2022-11-01T02:22:26.672Z,19.40
2022-11-01T02:28:39.770Z,19.23
2022-11-01T02:34:41.814Z,18.73
2022-11-01T02:40:42.386Z,19.40
2022-11-01T02:46:57.167Z,19.60
2022-11-01T02:52:52.262Z,21.80
2022-11-01T02:58:47.715Z,20.70
2022-11-01T03:04:42.268Z,22.30
2022-11-01T03:10:47.009Z,19.93
2022-11-01T03:16:49.393Z,21.23
2022-11-01T03:22:45.260Z,21.80
2022-11-01T03:28:43.937Z,21.13
2022-11-01T03:34:40.591Z,22.17
2022-11-01T03:40:35.592Z,22.27
2022-11-01T03:46:30.065Z,22.10
2022-11-01T03:52:23.390Z,22.10
2022-11-01T03:58:16.285Z,21.77
2022-11-01T04:04:10.897Z,21.33
2022-11-01T04:10:04.329Z,22.50
2022-11-01T04:16:16.869Z,22.20
2022-11-01T04:22:11.541Z,22.57
2022-11-01T04:28:04.890Z,24.37
2022-11-01T04:33:58.738Z,25.10
2022-11-01T04:39:53.338Z,24.87
2022-11-01T04:45:54.966Z,24.90
2022-11-01T04:51:48.279Z,23.97
2022-11-01T04:57:43.731Z,24.63
2022-11-01T05:03:37.009Z,24.00
2022-11-01T05:09:31.260Z,24.20
2022-11-01T05:15:26.100Z,23.63
2022-11-01T05:21:19.495Z,24.70
2022-11-01T05:27:13.029Z,24.20
2022-11-01T05:33:08.940Z,22.30
2022-11-01T05:39:02.439Z,23.37
2022-11-01T05:44:55.729Z,24.40
2022-11-01T05:50:50.494Z,25.43
2022-11-01T05:56:44.879Z,23.03
2022-11-01T06:02:38.233Z,23.30
2022-11-01T06:08:33.188Z,22.10
2022-11-01T06:14:26.614Z,23.20
2022-11-01T06:20:20.351Z,24.07
2022-11-01T06:26:15.201Z,25.50
2022-11-01T06:32:08.512Z,25.80
2022-11-01T06:38:03.876Z,24.93
2022-11-01T06:43:58.487Z,25.00
2022-11-01T06:49:51.992Z,24.50
2022-11-01T06:55:45.261Z,26.20
2022-11-01T07:01:40.002Z,24.37
2022-11-01T07:07:33.355Z,25.97
2022-11-01T07:13:26.628Z,28.50
2022-11-01T07:19:22.798Z,25.63
2022-11-01T07:25:16.165Z,26.37
2022-11-01T07:31:09.902Z,24.77
2022-11-01T07:37:04.474Z,24.63
2022-11-01T07:42:59.583Z,22.43
2022-11-01T07:48:52.832Z,24.77
2022-11-01T07:54:47.730Z,23.73
2022-11-01T08:00:41.249Z,22.73
2022-11-01T08:06:34.591Z,24.13
2022-11-01T08:12:29.410Z,22.77
2022-11-01T08:18:24.721Z,21.70
2022-11-01T08:24:18.028Z,21.37
2022-11-01T08:30:13.577Z,18.50
2022-11-01T08:36:06.864Z,17.77
2022-11-01T08:42:00.910Z,19.47
2022-11-01T08:48:00.532Z,17.47
2022-11-01T08:53:56.061Z,15.30
2022-11-01T08:59:49.359Z,15.17
2022-11-01T09:05:44.054Z,13.70
2022-11-01T09:11:38.458Z,13.40
2022-11-01T09:17:31.826Z,11.73
2022-11-01T09:23:26.071Z,10.03
2022-11-01T09:29:21.537Z,8.80
2022-11-01T09:35:14.878Z,6.97
2022-11-01T09:41:17.314Z,6.30
2022-11-01T09:47:17.314Z,5.90
2022-11-01T09:53:16.249Z,6.30
2022-11-01T09:59:20.407Z,5.47
2022-11-01T10:05:36.243Z,5.80
2022-11-01T10:12:00.445Z,4.93
2022-11-01T10:17:56.436Z,5.27
2022-11-01T10:23:52.881Z,4.70
2022-11-01T10:29:49.917Z,3.90
2022-11-01T10:35:47.615Z,3.40
2022-11-01T10:41:47.028Z,4.00
2022-11-01T10:47:43.148Z,3.97
2022-11-01T10:53:45.192Z,4.10
2022-11-01T10:59:43.108Z,4.30
2022-11-01T11:05:36.646Z,3.70
2022-11-01T11:11:37.448Z,3.00
2022-11-01T11:17:35.643Z,2.47
2022-11-01T11:23:31.027Z,1.80
2022-11-01T11:29:38.157Z,1.70
2022-11-01T11:35:33.776Z,2.77
2022-11-01T11:41:29.594Z,1.80
2022-11-01T11:47:25.892Z,1.40
2022-11-01T11:53:23.174Z,1.07
2022-11-01T11:59:26.454Z,1.37
2022-11-01T12:05:24.054Z,1.20
2022-11-01T12:11:17.335Z,1.00
2022-11-01T12:17:28.414Z,1.40
2022-11-01T12:23:30.722Z,1.17
2022-11-01T12:29:30.473Z,1.60
2022-11-01T12:35:31.015Z,1.80
2022-11-01T12:41:31.675Z,1.23
2022-11-01T12:47:30.800Z,1.40
2022-11-01T12:53:27.696Z,1.37
2022-11-01T12:59:28.072Z,1.73
2022-11-01T13:05:23.778Z,1.60
2022-11-01T13:11:24.210Z,1.77
2022-11-01T13:17:28.163Z,1.50
2022-11-01T13:23:28.863Z,1.70
2022-11-01T13:29:31.636Z,1.63
2022-11-01T13:35:46.119Z,1.60
2022-11-01T13:41:46.941Z,1.83
2022-11-01T13:47:50.882Z,1.70
2022-11-01T13:53:50.345Z,1.77
2022-11-01T13:59:55.992Z,1.50
2022-11-01T14:06:36.449Z,1.83
2022-11-01T14:12:37.678Z,1.53
2022-11-01T14:18:53.568Z,1.40
2022-11-01T14:24:54.699Z,1.33
2022-11-01T14:30:51.695Z,1.40
2022-11-01T14:36:46.178Z,1.60
2022-11-01T14:42:45.535Z,1.57
2022-11-01T14:48:45.692Z,1.30
2022-11-01T14:54:45.745Z,1.70
2022-11-01T15:00:39.593Z,1.70
2022-11-01T15:06:34.239Z,1.20
2022-11-01T15:12:31.091Z,1.10
2022-11-01T15:18:24.437Z,2.07
2022-11-01T15:24:25.033Z,1.67
2022-11-01T15:30:23.558Z,2.07
2022-11-01T15:36:22.468Z,1.80
2022-11-01T15:42:20.462Z,1.70
2022-11-01T15:48:20.918Z,1.27
2022-11-01T15:54:20.629Z,1.50
2022-11-01T16:00:20.481Z,1.50
2022-11-01T16:06:19.013Z,1.70
2022-11-01T16:12:19.255Z,1.93
2022-11-01T16:18:18.552Z,1.80
2022-11-01T16:24:15.976Z,2.13
2022-11-01T16:30:43.566Z,2.13
2022-11-01T16:36:41.940Z,1.87
2022-11-01T16:42:35.573Z,1.97
2022-11-01T16:48:30.481Z,2.07
2022-11-01T16:54:25.940Z,2.40
2022-11-01T17:00:19.405Z,1.70
2022-11-01T17:06:12.657Z,1.93
2022-11-01T17:12:07.933Z,1.93
2022-11-01T17:18:08.851Z,2.17
2022-11-01T17:24:05.565Z,2.33
2022-11-01T17:30:00.485Z,2.33
2022-11-01T17:42:05.989Z,2.40
2022-11-01T17:48:00.956Z,2.50
2022-11-01T17:53:55.555Z,2.07
2022-11-01T17:59:49.130Z,3.97
2022-11-01T18:05:44.360Z,2.00
2022-11-01T18:11:46.401Z,2.43
2022-11-01T18:17:48.870Z,3.10
2022-11-01T18:23:46.308Z,2.07
2022-11-01T18:29:41.732Z,2.10
2022-11-01T18:35:40.401Z,2.10
2022-11-01T18:41:35.172Z,2.80
2022-11-01T18:47:34.802Z,1.50
2022-11-01T18:53:29.600Z,2.73
2022-11-01T18:59:33.310Z,2.67
2022-11-01T19:05:27.538Z,2.20
2022-11-01T19:11:21.277Z,2.40
2022-11-01T19:17:23.872Z,2.20
2022-11-01T19:23:21.464Z,2.03
2022-11-01T19:29:19.619Z,2.10
2022-11-01T19:35:21.873Z,2.00
2022-11-01T19:41:17.213Z,2.07
2022-11-01T19:47:31.650Z,2.90
2022-11-01T19:53:29.429Z,2.63
2022-11-01T19:59:22.755Z,2.40
2022-11-01T20:05:29.019Z,2.57
2022-11-01T20:11:23.842Z,3.10
2022-11-01T20:17:17.136Z,2.57
2022-11-01T20:23:25.949Z,2.23
2022-11-01T20:29:22.122Z,2.23
2022-11-01T20:35:15.513Z,2.30
2022-11-01T20:41:09.024Z,2.33
2022-11-01T20:47:03.771Z,1.97
2022-11-01T20:52:57.291Z,2.60
2022-11-01T20:58:50.701Z,2.10
2022-11-01T21:04:46.097Z,2.00
2022-11-01T21:10:41.515Z,1.83
2022-11-01T21:16:34.820Z,2.60
2022-11-01T21:22:31.586Z,1.70
2022-11-01T21:28:30.427Z,2.33
2022-11-01T21:34:29.133Z,1.60
2022-11-01T21:40:28.021Z,1.80
2022-11-01T21:46:22.964Z,2.27
2022-11-01T21:52:16.499Z,2.10
2022-11-01T21:58:11.140Z,1.90
2022-11-01T22:04:04.766Z,1.90
2022-11-01T22:09:58.061Z,2.03
2022-11-01T22:15:52.700Z,2.57
2022-11-01T22:27:44.559Z,1.83
2022-11-01T22:33:39.184Z,1.53
2022-11-01T22:39:32.495Z,1.97
2022-11-01T22:45:25.728Z,1.80
2022-11-01T22:51:26.452Z,2.20
2022-11-01T22:57:22.515Z,2.33
2022-11-01T23:03:21.900Z,1.77
2022-11-01T23:09:18.531Z,2.03
2022-11-01T23:15:24.767Z,1.70
2022-11-01T23:21:19.324Z,1.93
2022-11-01T23:27:13.916Z,1.80
2022-11-01T23:33:09.661Z,1.53
2022-11-01T23:39:05.368Z,1.63
2022-11-01T23:45:00.010Z,1.40
2022-11-01T23:50:54.555Z,1.33
2022-11-01T23:56:48.042Z,1.67
